Langsund — LLPM — position and weather

sailwx.info

Track history (hours):
 
Tides and Currents Weather Stations Pressure Air Temp Water Temp Dewpoint Dewpoint Depression Visibility Wind Speed Wind Dir Waves Ship Positions

Langsund

Last reported at 2017-Nov-16 09:05 UTC. Time now 2017-Nov-23 05:40 UTC.
Position N 69°25' E 017°20'.

Length 44 m; draft 4.5 m.

Type: . MMSI: 258476000.

Date/timePositionNaut miles runAvg speedWind from/ knotsBaromVisibWave heightAir tempDewpointWater temp
2017-Nov-16 09:05N 69°25' E 017°20'0 0.0
2017-Nov-16 09:00N 69°25' E 017°20'0 0.0
2017-Nov-16 08:30N 69°25' E 017°20'0 0.0
2017-Nov-16 08:00N 69°25' E 017°20'0 0.0
2017-Nov-16 07:30N 69°25' E 017°20'0 0.0
2017-Nov-16 07:00N 69°25' E 017°20'3 4.9
2017-Nov-16 06:29N 69°27' E 017°15'4 8.2
2017-Nov-16 06:00N 69°31' E 017°13'510.0
2017-Nov-16 05:30N 69°34' E 017°22'5 9.2
2017-Nov-16 05:00N 69°36' E 017°34'510.2
2017-Nov-16 04:30N 69°36' E 017°49'510.5
2017-Nov-16 04:00N 69°33' E 018°02'611.2
2017-Nov-16 03:30N 69°31' E 018°17'611.1
2017-Nov-16 03:00N 69°32' E 018°32'612.0
2017-Nov-16 02:30N 69°34' E 018°48'611.1
2017-Nov-16 02:00N 69°39' E 018°58'0 0.6
2017-Nov-16 01:30N 69°39' E 018°58'0 0.0
2017-Nov-16 01:00N 69°39' E 018°58'0 0.0
2017-Nov-16 00:30N 69°39' E 018°58'0 0.0
2017-Nov-16 00:00N 69°39' E 018°58'0 0.0
2017-Nov-15 23:30N 69°39' E 018°58'0 0.0
2017-Nov-15 23:00N 69°39' E 018°58'0 0.0
2017-Nov-15 22:30N 69°39' E 018°58'0 0.0
2017-Nov-15 22:00N 69°39' E 018°58'0 0.0
2017-Nov-15 21:30N 69°39' E 018°58'0 0.0
2017-Nov-15 21:00N 69°39' E 018°58'0 0.0
2017-Nov-15 20:30N 69°39' E 018°58'0 0.0
2017-Nov-15 20:01N 69°39' E 018°58'0 0.0
2017-Nov-15 19:30N 69°39' E 018°58'0 0.0
2017-Nov-15 19:00N 69°39' E 018°58'0 0.0
2017-Nov-15 18:30N 69°39' E 018°58'0 0.0
2017-Nov-15 18:00N 69°39' E 018°58'0 0.0
2017-Nov-15 17:30N 69°39' E 018°58'0 0.0
2017-Nov-15 17:00N 69°39' E 018°58'0 0.0
2017-Nov-15 16:30N 69°39' E 018°58'0 0.9
2017-Nov-15 16:00N 69°39' E 018°59'0 0.3
2017-Nov-15 15:30N 69°39' E 018°58'0 0.0
2017-Nov-15 15:00N 69°39' E 018°58'0 0.0
2017-Nov-15 14:30N 69°39' E 018°58'0 0.1
2017-Nov-15 13:59N 69°39' E 018°58'510.4
2017-Nov-15 13:30N 69°44' E 019°05'510.7
2017-Nov-15 13:00N 69°47' E 019°17'510.6
2017-Nov-15 12:30N 69°50' E 019°31'611.4
2017-Nov-15 12:00N 69°52' E 019°47'611.9
2017-Nov-15 11:30N 69°55' E 020°01'611.9
2017-Nov-15 11:00N 69°59' E 020°15'611.8
2017-Nov-15 10:30N 70°01' E 020°31'611.4
2017-Nov-15 10:00N 70°03' E 020°46'3 5.3
2017-Nov-15 09:30N 70°05' E 020°46'2 4.0
2017-Nov-15 08:59N 70°07' E 020°46'510.6
2017-Nov-15 08:30N 70°11' E 020°57'510.6
2017-Nov-15 08:00N 70°14' E 021°10'510.7
2017-Nov-15 07:30N 70°17' E 021°22'510.8
2017-Nov-15 07:00N 70°21' E 021°34'510.4
2017-Nov-15 06:30N 70°24' E 021°47'510.5
2017-Nov-15 06:00N 70°25' E 022°02'510.4
2017-Nov-15 05:30N 70°27' E 022°17'611.1
2017-Nov-15 05:00N 70°28' E 022°33'611.3
2017-Nov-15 04:30N 70°30' E 022°49'510.9
2017-Nov-15 04:00N 70°33' E 023°03'510.8
2017-Nov-15 03:31N 70°36' E 023°14'611.1
2017-Nov-15 03:00N 70°40' E 023°26'511.0
2017-Nov-15 02:30N 70°45' E 023°36'510.7
2017-Nov-15 02:00N 70°49' E 023°48'511.0
2017-Nov-15 01:30N 70°52' E 024°01'510.6
2017-Nov-15 01:00N 70°56' E 024°12'610.9
2017-Nov-15 00:30N 70°59' E 024°25'5 9.8
2017-Nov-15 00:00N 71°01' E 024°39'510.7
2017-Nov-14 23:30N 70°59' E 024°55'510.5
2017-Nov-14 23:00N 70°57' E 025°09'4 8.2
2017-Nov-14 22:30N 70°55' E 025°20'0 0.0
2017-Nov-14 22:00N 70°55' E 025°20'0 0.0
2017-Nov-14 21:30N 70°55' E 025°20'0 0.0
2017-Nov-14 21:00N 70°55' E 025°20'2 3.1
2017-Nov-14 20:30N 70°56' E 025°16'612.4
2017-Nov-14 20:00N 70°59' E 024°60'612.5
2017-Nov-14 19:30N 71°01' E 024°41'510.6
2017-Nov-14 19:00N 70°59' E 024°26'612.0
2017-Nov-14 18:30N 70°55' E 024°12'612.0
2017-Nov-14 18:00N 70°51' E 023°59'611.9
2017-Nov-14 17:30N 70°47' E 023°45'612.0
2017-Nov-14 17:00N 70°43' E 023°33'612.0
2017-Nov-14 16:30N 70°39' E 023°20'612.5
2017-Nov-14 16:00N 70°34' E 023°06'612.2
2017-Nov-14 15:29N 70°30' E 022°52'612.3
2017-Nov-14 15:00N 70°29' E 022°34'612.3
2017-Nov-14 14:30N 70°27' E 022°16'612.3
2017-Nov-14 14:00N 70°26' E 021°59'612.3
2017-Nov-14 13:30N 70°24' E 021°41'612.0
2017-Nov-14 13:00N 70°19' E 021°29'612.0
2017-Nov-14 12:30N 70°16' E 021°15'612.1
2017-Nov-14 12:00N 70°12' E 021°01'611.9
2017-Nov-14 11:30N 70°08' E 020°47'3 5.1
2017-Nov-14 10:58N 70°05' E 020°46'3 5.9
2017-Nov-14 10:30N 70°08' E 020°47'510.4
2017-Nov-14 10:00N 70°12' E 020°59'510.6
2017-Nov-14 09:30N 70°15' E 021°12'510.2
2017-Nov-14 09:00N 70°18' E 021°24'510.2
2017-Nov-14 08:30N 70°21' E 021°35'510.1
2017-Nov-14 08:00N 70°25' E 021°46'510.5
2017-Nov-14 07:30N 70°26' E 022°01'510.5
2017-Nov-14 07:00N 70°27' E 022°16'510.7
2017-Nov-14 06:30N 70°29' E 022°32'510.5
2017-Nov-14 06:00N 70°30' E 022°47'510.4
2017-Nov-14 05:30N 70°32' E 023°01'510.7
2017-Nov-14 04:59N 70°36' E 023°13'511.0
2017-Nov-14 04:30N 70°40' E 023°24'511.0
2017-Nov-14 04:00N 70°44' E 023°36'611.1
2017-Nov-14 03:30N 70°48' E 023°49'611.3
2017-Nov-14 03:00N 70°51' E 024°01'611.4
2017-Nov-14 02:29N 70°56' E 024°14'511.2
2017-Nov-14 02:00N 70°60' E 024°25'5 9.9
2017-Nov-14 01:30N 71°01' E 024°39'611.3
2017-Nov-14 01:00N 70°59' E 024°55'510.9
2017-Nov-14 00:30N 70°57' E 025°11'4 7.2
2017-Nov-13 23:59N 70°55' E 025°20'0 0.0
2017-Nov-13 23:30N 70°55' E 025°20'1 1.7
2017-Nov-13 23:00N 70°55' E 025°18'611.9
2017-Nov-13 22:30N 70°58' E 025°02'612.1
2017-Nov-13 22:00N 71°00' E 024°45'4 0.2
2017-Nov-13 02:01N 70°60' E 024°57'610.9
2017-Nov-13 01:30N 71°01' E 024°40'5 9.0
2017-Nov-13 00:59N 70°59' E 024°28'611.8
2017-Nov-13 00:30N 70°54' E 024°20'611.2
2017-Nov-13 00:00N 70°49' E 024°13'611.8
2017-Nov-12 23:30N 70°43' E 024°11'611.8
2017-Nov-12 23:00N 70°37' E 024°09'611.7
2017-Nov-12 22:30N 70°32' E 024°01'611.8
2017-Nov-12 22:00N 70°28' E 023°46'612.3
2017-Nov-12 21:30N 70°24' E 023°34'612.3
2017-Nov-12 21:00N 70°19' E 023°23'612.1
2017-Nov-12 20:30N 70°14' E 023°12'611.5
2017-Nov-12 20:00N 70°09' E 023°07'612.0
2017-Nov-12 19:30N 70°03' E 023°08'510.9
2017-Nov-12 19:00N 69°57' E 023°07'0 0.9
2017-Nov-12 18:31N 69°57' E 023°06'4 7.4
2017-Nov-12 18:00N 70°01' E 023°08'510.7
2017-Nov-12 17:30N 70°06' E 023°07'610.9
2017-Nov-12 16:59N 70°11' E 023°08'510.5
2017-Nov-12 16:30N 70°16' E 023°16'510.7
2017-Nov-12 16:00N 70°20' E 023°26'510.9
2017-Nov-12 15:30N 70°24' E 023°36'510.9
2017-Nov-12 15:00N 70°29' E 023°46'611.3
2017-Nov-12 14:30N 70°31' E 024°01'510.9
2017-Nov-12 14:01N 70°36' E 024°09'510.7
2017-Nov-12 13:30N 70°41' E 024°10'510.6
2017-Nov-12 12:59N 70°47' E 024°12'510.5
2017-Nov-12 12:30N 70°52' E 024°16'510.8
2017-Nov-12 12:00N 70°56' E 024°25'510.5
2017-Nov-12 11:31N 71°01' E 024°32'510.5
2017-Nov-12 11:01N 71°00' E 024°48'610.7
2017-Nov-12 10:29N 70°59' E 025°05'510.7
2017-Nov-12 10:00N 70°59' E 025°21'5 9.7
2017-Nov-12 09:30N 70°56' E 025°32'5 8.8
2017-Nov-12 09:00N 70°58' E 025°45'1 1.8
2017-Nov-12 08:30N 70°59' E 025°45'0 0.0
2017-Nov-12 08:00N 70°59' E 025°45'0 0.0
2017-Nov-12 07:30N 70°59' E 025°45'2 4.5
2017-Nov-12 07:00N 70°57' E 025°45'611.3
2017-Nov-12 06:30N 70°58' E 025°27'612.0
2017-Nov-12 06:00N 70°59' E 025°10'611.8
2017-Nov-12 05:30N 71°00' E 024°52'612.1
2017-Nov-12 05:00N 71°02' E 024°34'611.8
2017-Nov-12 04:30N 70°56' E 024°25'611.6
2017-Nov-12 04:00N 70°51' E 024°16'611.8
2017-Nov-12 03:30N 70°46' E 024°12'612.1
2017-Nov-12 03:00N 70°40' E 024°10'611.8
2017-Nov-12 02:30N 70°34' E 024°05'611.0
2017-Nov-12 02:00N 70°30' E 023°53'611.4
2017-Nov-12 01:30N 70°26' E 023°41'611.6
2017-Nov-12 01:00N 70°22' E 023°30'611.9
2017-Nov-12 00:30N 70°17' E 023°19'612.0
2017-Nov-12 00:00N 70°12' E 023°09'612.2
2017-Nov-11 23:30N 70°06' E 023°07'612.3
2017-Nov-11 23:00N 69°60' E 023°08'3 6.5
2017-Nov-11 22:30N 69°57' E 023°06'1 2.8
2017-Nov-11 22:00N 69°58' E 023°09'510.5
2017-Nov-11 21:30N 70°03' E 023°08'510.0
2017-Nov-11 21:00N 70°08' E 023°07'510.4
2017-Nov-11 20:30N 70°13' E 023°10'510.5
2017-Nov-11 20:00N 70°17' E 023°19'510.3
2017-Nov-11 19:30N 70°21' E 023°28'5 9.9
2017-Nov-11 19:00N 70°25' E 023°37'510.0
2017-Nov-11 18:30N 70°29' E 023°47'5 9.5
2017-Nov-11 18:00N 70°31' E 023°60'510.5
2017-Nov-11 17:30N 70°36' E 024°08'510.5
2017-Nov-11 17:00N 70°41' E 024°11'510.5
2017-Nov-11 16:30N 70°46' E 024°12'510.2
2017-Nov-11 16:00N 70°51' E 024°14'610.7
2017-Nov-11 15:29N 70°56' E 024°23'510.8
2017-Nov-11 14:59N 71°01' E 024°30'5 9.7
2017-Nov-11 14:30N 71°01' E 024°45'611.1
2017-Nov-11 14:00N 70°60' E 025°02'611.0
2017-Nov-11 13:29N 70°59' E 025°19'611.4
2017-Nov-11 13:00N 70°56' E 025°33'4 8.8
2017-Nov-11 12:29N 70°58' E 025°45'1 1.5
2017-Nov-11 12:00N 70°59' E 025°45'0 0.0
2017-Nov-11 11:30N 70°59' E 025°45'0 0.0
2017-Nov-11 11:00N 70°59' E 025°45'0 0.0
2017-Nov-11 10:30N 70°59' E 025°45'0 0.0
2017-Nov-11 10:00N 70°59' E 025°45'0 0.3
2017-Nov-11 09:30N 70°59' E 025°45'4 7.6
2017-Nov-11 09:00N 70°56' E 025°38'611.8
2017-Nov-11 08:30N 70°59' E 025°22'611.8
2017-Nov-11 08:00N 70°59' E 025°04'612.4
2017-Nov-11 07:30N 71°01' E 024°45'510.3
2017-Nov-11 07:00N 70°59' E 024°29'612.3
2017-Nov-11 06:30N 70°54' E 024°21'612.3
2017-Nov-11 06:00N 70°49' E 024°13'612.3
2017-Nov-11 05:30N 70°43' E 024°11'612.1
2017-Nov-11 05:00N 70°36' E 024°09'612.2
2017-Nov-11 04:30N 70°31' E 023°60'612.5
2017-Nov-11 04:00N 70°28' E 023°44'612.5
2017-Nov-11 03:30N 70°23' E 023°32'612.2
2017-Nov-11 03:00N 70°18' E 023°21'612.3
2017-Nov-11 02:30N 70°13' E 023°10'612.0
2017-Nov-11 02:00N 70°07' E 023°07'612.2
2017-Nov-11 01:30N 70°01' E 023°09'4 9.1
2017-Nov-11 01:00N 69°57' E 023°06'0 0.1
2017-Nov-11 00:30N 69°57' E 023°06'4 9.1
2017-Nov-11 00:01N 70°01' E 023°09'510.1
2017-Nov-10 23:30N 70°06' E 023°07'510.3
2017-Nov-10 23:00N 70°11' E 023°09'510.3
2017-Nov-10 22:30N 70°16' E 023°16'510.6
2017-Nov-10 22:00N 70°20' E 023°25'510.6
2017-Nov-10 21:30N 70°24' E 023°36'510.4
2017-Nov-10 21:00N 70°28' E 023°46'510.4
2017-Nov-10 20:30N 70°31' E 023°59'510.6
2017-Nov-10 20:00N 70°35' E 024°08'510.4
2017-Nov-10 19:30N 70°41' E 024°10'510.3
2017-Nov-10 19:00N 70°46' E 024°11'510.1
2017-Nov-10 18:30N 70°51' E 024°14'5 9.4
2017-Nov-10 18:00N 70°54' E 024°22'510.0
2017-Nov-10 17:30N 70°59' E 024°28'4 8.0
2017-Nov-10 17:00N 71°01' E 024°38'5 9.6
2017-Nov-10 16:30N 70°60' E 024°52'510.1
2017-Nov-10 16:00N 70°59' E 025°07'510.0
2017-Nov-10 15:30N 70°59' E 025°23'4 8.9
2017-Nov-10 15:00N 70°56' E 025°33'4 7.6
2017-Nov-10 14:30N 70°52' E 025°27'0 0.0
2017-Nov-10 14:00N 70°52' E 025°27'0 0.0
2017-Nov-10 13:30N 70°52' E 025°27'0 0.1
2017-Nov-10 13:00N 70°52' E 025°27'4 8.7
2017-Nov-10 12:30N 70°57' E 025°30'510.7
2017-Nov-10 12:00N 70°59' E 025°15'611.7
2017-Nov-10 11:30N 70°59' E 024°57'611.6
2017-Nov-10 11:00N 71°01' E 024°40'5 9.8
2017-Nov-10 10:30N 70°59' E 024°27'611.9
2017-Nov-10 10:00N 70°53' E 024°19'611.6
2017-Nov-10 09:29N 70°48' E 024°12'612.1
2017-Nov-10 09:00N 70°42' E 024°10'611.9
2017-Nov-10 08:30N 70°36' E 024°08'611.7
2017-Nov-10 08:00N 70°31' E 023°58'612.0
2017-Nov-10 07:30N 70°28' E 023°44'612.4
2017-Nov-10 07:00N 70°23' E 023°32'612.2
2017-Nov-10 06:30N 70°18' E 023°21'612.0
2017-Nov-10 06:00N 70°13' E 023°10'612.0
2017-Nov-10 05:30N 70°07' E 023°07'612.1
2017-Nov-10 05:00N 70°01' E 023°08'5 9.0
2017-Nov-10 04:30N 69°57' E 023°06'0 0.0
2017-Nov-10 03:59N 69°57' E 023°06'4 8.9
2017-Nov-10 03:29N 70°01' E 023°08'510.4
2017-Nov-10 03:00N 70°06' E 023°07'510.5
2017-Nov-10 02:30N 70°11' E 023°09'5 9.9
2017-Nov-10 02:00N 70°16' E 023°16'510.1
2017-Nov-10 01:30N 70°20' E 023°25'510.3
2017-Nov-10 01:01N 70°24' E 023°34'510.5
2017-Nov-10 00:31N 70°28' E 023°44'510.5
2017-Nov-10 00:00N 70°31' E 023°58'510.5
2017-Nov-09 23:30N 70°35' E 024°07'510.1
2017-Nov-09 23:00N 70°40' E 024°10'510.1
2017-Nov-09 22:30N 70°45' E 024°11'510.0
2017-Nov-09 22:00N 70°50' E 024°13'510.7
2017-Nov-09 21:30N 70°54' E 024°22'510.2
2017-Nov-09 21:00N 70°59' E 024°29'4 8.7
2017-Nov-09 20:30N 71°01' E 024°41'510.7
2017-Nov-09 20:00N 70°60' E 024°56'510.3
2017-Nov-09 19:30N 70°59' E 025°12'5 9.8
2017-Nov-09 19:00N 70°58' E 025°27'4 8.5
2017-Nov-09 18:31N 70°54' E 025°32'2 4.8
2017-Nov-09 18:00N 70°52' E 025°27'0 0.0
2017-Nov-09 17:30N 70°52' E 025°27'1 1.7
2017-Nov-09 17:00N 70°53' E 025°29'510.9
2017-Nov-09 16:30N 70°58' E 025°26'611.8
2017-Nov-09 16:00N 70°59' E 025°08'611.6
2017-Nov-09 15:31N 71°00' E 024°51'611.8
2017-Nov-09 15:00N 71°01' E 024°32'612.2
2017-Nov-09 14:30N 70°56' E 024°24'611.8
2017-Nov-09 14:00N 70°51' E 024°14'612.0
2017-Nov-09 13:30N 70°45' E 024°12'611.9
2017-Nov-09 13:01N 70°39' E 024°10'611.6
2017-Nov-09 12:30N 70°34' E 024°05'510.7
2017-Nov-09 12:00N 70°30' E 023°53'611.7
2017-Nov-09 11:30N 70°26' E 023°39'611.3
2017-Nov-09 11:00N 70°22' E 023°29'611.7
2017-Nov-09 10:30N 70°17' E 023°19'611.8
2017-Nov-09 10:00N 70°12' E 023°09'612.1
2017-Nov-09 09:30N 70°06' E 023°07'612.1
2017-Nov-09 09:00N 70°00' E 023°09'3 6.8
2017-Nov-09 08:30N 69°57' E 023°06'1 2.2
2017-Nov-09 08:01N 69°57' E 023°08'5 9.9
2017-Nov-09 07:30N 70°03' E 023°08'5 9.6
2017-Nov-09 07:00N 70°07' E 023°07'510.3
2017-Nov-09 06:30N 70°12' E 023°09'510.5
2017-Nov-09 06:00N 70°17' E 023°17'510.3
2017-Nov-09 05:30N 70°21' E 023°27'5 9.8
2017-Nov-09 05:00N 70°25' E 023°37'5 9.7
2017-Nov-09 04:30N 70°28' E 023°45'5 9.0
2017-Nov-09 03:54N 70°31' E 023°60'410.6
2017-Nov-09 03:30N 70°35' E 024°07'510.2
2017-Nov-09 03:00N 70°39' E 024°11'510.1
2017-Nov-09 02:30N 70°45' E 024°12'510.1
2017-Nov-09 02:00N 70°50' E 024°13'510.1
2017-Nov-09 01:30N 70°54' E 024°21'510.4
2017-Nov-09 01:00N 70°58' E 024°28'4 8.8
2017-Nov-09 00:30N 71°01' E 024°38'610.9
2017-Nov-09 00:00N 70°60' E 024°55'510.9
2017-Nov-08 23:30N 70°59' E 025°12'510.2
2017-Nov-08 23:00N 70°58' E 025°27'5 9.9
2017-Nov-08 22:30N 70°53' E 025°30'1 2.6
2017-Nov-08 22:00N 70°52' E 025°27'0 0.0
2017-Nov-08 21:30N 70°52' E 025°27'3 5.4
2017-Nov-08 21:00N 70°54' E 025°33'4 8.9
2017-Nov-08 20:30N 70°58' E 025°26'510.8
2017-Nov-08 20:00N 70°59' E 025°10'611.5
2017-Nov-08 19:30N 70°60' E 024°52'611.7
2017-Nov-08 18:59N 71°01' E 024°34'611.7
2017-Nov-08 18:30N 70°58' E 024°21'612.4
2017-Nov-08 18:00N 70°54' E 024°07'612.2
2017-Nov-08 17:30N 70°50' E 023°53'612.5
2017-Nov-08 17:01N 70°45' E 023°40'713.0
2017-Nov-08 16:30N 70°40' E 023°26'612.9
2017-Nov-08 16:00N 70°36' E 023°13'712.9
2017-Nov-08 15:30N 70°31' E 022°58'612.7
2017-Nov-08 15:00N 70°29' E 022°41'612.1
2017-Nov-08 14:30N 70°28' E 022°22'611.3
2017-Nov-08 14:00N 70°26' E 022°06'611.8
2017-Nov-08 13:31N 70°25' E 021°50'1111.7
2017-Nov-08 12:36N 70°18' E 021°25'112.1
2017-Nov-08 12:30N 70°17' E 021°22'811.5
2017-Nov-08 11:49N 70°11' E 021°08'16 5.9
2017-Nov-08 09:05N 70°01' E 020°30'110.0
2017-Nov-08 09:00N 70°01' E 020°28'510.0
2017-Nov-08 08:30N 70°02' E 020°13'510.1
2017-Nov-08 08:00N 70°02' E 019°58'5 9.9
2017-Nov-08 07:30N 70°03' E 019°44'5 9.7
2017-Nov-08 07:00N 70°04' E 019°31'3 7.0
2017-Nov-08 06:30N 70°04' E 019°20'0 0.0
2017-Nov-08 06:00N 70°04' E 019°20'0 0.0
2017-Nov-08 05:30N 70°04' E 019°20'0 0.0
2017-Nov-08 05:00N 70°04' E 019°20'0 0.0
2017-Nov-08 04:30N 70°04' E 019°20'0 0.3
2017-Nov-08 04:00N 70°04' E 019°20'4 8.7
2017-Nov-08 03:30N 70°04' E 019°33'611.3
2017-Nov-08 03:00N 70°02' E 019°49'610.9
2017-Nov-08 02:30N 70°02' E 020°05'611.2
2017-Nov-08 02:00N 70°02' E 020°21'511.2
2017-Nov-08 01:30N 70°02' E 020°37'611.2
2017-Nov-08 01:00N 70°03' E 020°53'3 5.0
2017-Nov-08 00:30N 70°02' E 020°59'0 0.6
2017-Nov-08 00:00N 70°02' E 021°00'11 8.6
2017-Nov-07 22:40N 70°02' E 020°27'210.1
2017-Nov-07 22:30N 70°02' E 020°22'510.4
2017-Nov-07 22:00N 70°02' E 020°07'510.3
2017-Nov-07 21:30N 70°03' E 019°52'5 9.9
2017-Nov-07 21:00N 70°04' E 019°38'510.0
2017-Nov-07 20:30N 70°05' E 019°24'1 2.8
2017-Nov-07 20:00N 70°04' E 019°20'0 0.0
2017-Nov-07 19:30N 70°04' E 019°20'1 2.2
2017-Nov-07 19:00N 70°05' E 019°22'612.2
2017-Nov-07 18:30N 70°03' E 019°39'612.3
2017-Nov-07 18:00N 70°02' E 019°57'611.7
2017-Nov-07 17:30N 70°02' E 020°14'611.6
2017-Nov-07 17:00N 70°01' E 020°31'611.4
2017-Nov-07 16:30N 70°03' E 020°47'5 9.7
2017-Nov-07 16:00N 70°03' E 021°01'1 2.1
2017-Nov-07 15:30N 70°02' E 020°59'0 0.0
2017-Nov-07 15:00N 70°02' E 020°59'2 3.7
2017-Nov-07 14:30N 70°04' E 020°56'510.9
2017-Nov-07 14:00N 70°02' E 020°41'510.5
2017-Nov-07 13:30N 70°01' E 020°25'510.3
2017-Nov-07 13:00N 70°02' E 020°10'510.3
2017-Nov-07 12:30N 70°02' E 019°55'510.5
2017-Nov-07 12:00N 70°03' E 019°40'510.4
2017-Nov-07 11:30N 70°05' E 019°25'2 3.6
2017-Nov-07 11:00N 70°04' E 019°20'0 0.0
2017-Nov-07 10:30N 70°04' E 019°20'1 2.0
2017-Nov-07 10:00N 70°05' E 019°22'611.4
2017-Nov-07 09:30N 70°04' E 019°37'611.9
2017-Nov-07 09:00N 70°02' E 019°54'611.5
2017-Nov-07 08:30N 70°02' E 020°11'611.4
2017-Nov-07 08:00N 70°01' E 020°28'612.1
2017-Nov-07 07:30N 70°03' E 020°45'611.0
2017-Nov-07 07:00N 70°03' E 021°01'1 2.7
2017-Nov-07 06:30N 70°02' E 020°59'1 1.4
2017-Nov-07 06:00N 70°02' E 021°01'2 3.4
2017-Nov-07 05:30N 70°04' E 021°04'0 0.8
2017-Nov-07 05:00N 70°04' E 021°04'1 2.0
2017-Nov-07 04:30N 70°03' E 021°04'1 1.9
2017-Nov-07 04:01N 70°02' E 021°03'0 0.7
2017-Nov-07 03:30N 70°02' E 021°02'3 5.6
2017-Nov-07 03:00N 70°04' E 020°55'510.0
2017-Nov-07 02:30N 70°02' E 020°41'5 9.7
2017-Nov-07 02:00N 70°02' E 020°27'5 9.5
2017-Nov-07 01:30N 70°02' E 020°13'510.1
2017-Nov-07 01:00N 70°02' E 019°59'510.7
2017-Nov-07 00:30N 70°03' E 019°43'510.5
2017-Nov-07 00:00N 70°05' E 019°29'3 5.6
2017-Nov-06 23:30N 70°04' E 019°20'0 0.0
2017-Nov-06 23:00N 70°04' E 019°20'0 0.0
2017-Nov-06 22:30N 70°04' E 019°20'4 7.2
2017-Nov-06 22:00N 70°04' E 019°31'510.7
2017-Nov-06 21:30N 69°60' E 019°41'611.0
2017-Nov-06 21:00N 69°55' E 019°31'611.8
2017-Nov-06 20:30N 69°50' E 019°23'  
Track history (hours):
 
Tides and Currents Weather Stations Pressure Air Temp Water Temp Dewpoint Dewpoint Depression Visibility Wind Speed Wind Dir Waves Ship Positions

Langsund

Last reported at 2017-Nov-16 09:05 UTC. Time now 2017-Nov-23 05:40 UTC.
Position N 69°25' E 017°20'.

Length 44 m; draft 4.5 m.

Type: . MMSI: 258476000.

Date/timePositionNaut miles runAvg speedWind from/ knotsBaromVisibWave heightAir tempDewpointWater temp
2017-Nov-16 09:05N 69°25' E 017°20'0 0.0
2017-Nov-16 09:00N 69°25' E 017°20'0 0.0
2017-Nov-16 08:30N 69°25' E 017°20'0 0.0
2017-Nov-16 08:00N 69°25' E 017°20'0 0.0
2017-Nov-16 07:30N 69°25' E 017°20'0 0.0
2017-Nov-16 07:00N 69°25' E 017°20'3 4.9
2017-Nov-16 06:29N 69°27' E 017°15'4 8.2
2017-Nov-16 06:00N 69°31' E 017°13'510.0
2017-Nov-16 05:30N 69°34' E 017°22'5 9.2
2017-Nov-16 05:00N 69°36' E 017°34'510.2
2017-Nov-16 04:30N 69°36' E 017°49'510.5
2017-Nov-16 04:00N 69°33' E 018°02'611.2
2017-Nov-16 03:30N 69°31' E 018°17'611.1
2017-Nov-16 03:00N 69°32' E 018°32'612.0
2017-Nov-16 02:30N 69°34' E 018°48'611.1
2017-Nov-16 02:00N 69°39' E 018°58'0 0.6
2017-Nov-16 01:30N 69°39' E 018°58'0 0.0
2017-Nov-16 01:00N 69°39' E 018°58'0 0.0
2017-Nov-16 00:30N 69°39' E 018°58'0 0.0
2017-Nov-16 00:00N 69°39' E 018°58'0 0.0
2017-Nov-15 23:30N 69°39' E 018°58'0 0.0
2017-Nov-15 23:00N 69°39' E 018°58'0 0.0
2017-Nov-15 22:30N 69°39' E 018°58'0 0.0
2017-Nov-15 22:00N 69°39' E 018°58'0 0.0
2017-Nov-15 21:30N 69°39' E 018°58'0 0.0
2017-Nov-15 21:00N 69°39' E 018°58'0 0.0
2017-Nov-15 20:30N 69°39' E 018°58'0 0.0
2017-Nov-15 20:01N 69°39' E 018°58'0 0.0
2017-Nov-15 19:30N 69°39' E 018°58'0 0.0
2017-Nov-15 19:00N 69°39' E 018°58'0 0.0
2017-Nov-15 18:30N 69°39' E 018°58'0 0.0
2017-Nov-15 18:00N 69°39' E 018°58'0 0.0
2017-Nov-15 17:30N 69°39' E 018°58'0 0.0
2017-Nov-15 17:00N 69°39' E 018°58'0 0.0
2017-Nov-15 16:30N 69°39' E 018°58'0 0.9
2017-Nov-15 16:00N 69°39' E 018°59'0 0.3
2017-Nov-15 15:30N 69°39' E 018°58'0 0.0
2017-Nov-15 15:00N 69°39' E 018°58'0 0.0
2017-Nov-15 14:30N 69°39' E 018°58'0 0.1
2017-Nov-15 13:59N 69°39' E 018°58'510.4
2017-Nov-15 13:30N 69°44' E 019°05'510.7
2017-Nov-15 13:00N 69°47' E 019°17'510.6
2017-Nov-15 12:30N 69°50' E 019°31'611.4
2017-Nov-15 12:00N 69°52' E 019°47'611.9
2017-Nov-15 11:30N 69°55' E 020°01'611.9
2017-Nov-15 11:00N 69°59' E 020°15'611.8
2017-Nov-15 10:30N 70°01' E 020°31'611.4
2017-Nov-15 10:00N 70°03' E 020°46'3 5.3
2017-Nov-15 09:30N 70°05' E 020°46'2 4.0
2017-Nov-15 08:59N 70°07' E 020°46'510.6
2017-Nov-15 08:30N 70°11' E 020°57'510.6
2017-Nov-15 08:00N 70°14' E 021°10'510.7
2017-Nov-15 07:30N 70°17' E 021°22'510.8
2017-Nov-15 07:00N 70°21' E 021°34'510.4
2017-Nov-15 06:30N 70°24' E 021°47'510.5
2017-Nov-15 06:00N 70°25' E 022°02'510.4
2017-Nov-15 05:30N 70°27' E 022°17'611.1
2017-Nov-15 05:00N 70°28' E 022°33'611.3
2017-Nov-15 04:30N 70°30' E 022°49'510.9
2017-Nov-15 04:00N 70°33' E 023°03'510.8
2017-Nov-15 03:31N 70°36' E 023°14'611.1
2017-Nov-15 03:00N 70°40' E 023°26'511.0
2017-Nov-15 02:30N 70°45' E 023°36'510.7
2017-Nov-15 02:00N 70°49' E 023°48'511.0
2017-Nov-15 01:30N 70°52' E 024°01'510.6
2017-Nov-15 01:00N 70°56' E 024°12'610.9
2017-Nov-15 00:30N 70°59' E 024°25'5 9.8
2017-Nov-15 00:00N 71°01' E 024°39'510.7
2017-Nov-14 23:30N 70°59' E 024°55'510.5
2017-Nov-14 23:00N 70°57' E 025°09'4 8.2
2017-Nov-14 22:30N 70°55' E 025°20'0 0.0
2017-Nov-14 22:00N 70°55' E 025°20'0 0.0
2017-Nov-14 21:30N 70°55' E 025°20'0 0.0
2017-Nov-14 21:00N 70°55' E 025°20'2 3.1
2017-Nov-14 20:30N 70°56' E 025°16'612.4
2017-Nov-14 20:00N 70°59' E 024°60'612.5
2017-Nov-14 19:30N 71°01' E 024°41'510.6
2017-Nov-14 19:00N 70°59' E 024°26'612.0
2017-Nov-14 18:30N 70°55' E 024°12'612.0
2017-Nov-14 18:00N 70°51' E 023°59'611.9
2017-Nov-14 17:30N 70°47' E 023°45'612.0
2017-Nov-14 17:00N 70°43' E 023°33'612.0
2017-Nov-14 16:30N 70°39' E 023°20'612.5
2017-Nov-14 16:00N 70°34' E 023°06'612.2
2017-Nov-14 15:29N 70°30' E 022°52'612.3
2017-Nov-14 15:00N 70°29' E 022°34'612.3
2017-Nov-14 14:30N 70°27' E 022°16'612.3
2017-Nov-14 14:00N 70°26' E 021°59'612.3
2017-Nov-14 13:30N 70°24' E 021°41'612.0
2017-Nov-14 13:00N 70°19' E 021°29'612.0
2017-Nov-14 12:30N 70°16' E 021°15'612.1
2017-Nov-14 12:00N 70°12' E 021°01'611.9
2017-Nov-14 11:30N 70°08' E 020°47'3 5.1
2017-Nov-14 10:58N 70°05' E 020°46'3 5.9
2017-Nov-14 10:30N 70°08' E 020°47'510.4
2017-Nov-14 10:00N 70°12' E 020°59'510.6
2017-Nov-14 09:30N 70°15' E 021°12'510.2
2017-Nov-14 09:00N 70°18' E 021°24'510.2
2017-Nov-14 08:30N 70°21' E 021°35'510.1
2017-Nov-14 08:00N 70°25' E 021°46'510.5
2017-Nov-14 07:30N 70°26' E 022°01'510.5
2017-Nov-14 07:00N 70°27' E 022°16'510.7
2017-Nov-14 06:30N 70°29' E 022°32'510.5
2017-Nov-14 06:00N 70°30' E 022°47'510.4
2017-Nov-14 05:30N 70°32' E 023°01'510.7
2017-Nov-14 04:59N 70°36' E 023°13'511.0
2017-Nov-14 04:30N 70°40' E 023°24'511.0
2017-Nov-14 04:00N 70°44' E 023°36'611.1
2017-Nov-14 03:30N 70°48' E 023°49'611.3
2017-Nov-14 03:00N 70°51' E 024°01'611.4
2017-Nov-14 02:29N 70°56' E 024°14'511.2
2017-Nov-14 02:00N 70°60' E 024°25'5 9.9
2017-Nov-14 01:30N 71°01' E 024°39'611.3
2017-Nov-14 01:00N 70°59' E 024°55'510.9
2017-Nov-14 00:30N 70°57' E 025°11'4 7.2
2017-Nov-13 23:59N 70°55' E 025°20'0 0.0
2017-Nov-13 23:30N 70°55' E 025°20'1 1.7
2017-Nov-13 23:00N 70°55' E 025°18'611.9
2017-Nov-13 22:30N 70°58' E 025°02'612.1
2017-Nov-13 22:00N 71°00' E 024°45'4 0.2
2017-Nov-13 02:01N 70°60' E 024°57'610.9
2017-Nov-13 01:30N 71°01' E 024°40'5 9.0
2017-Nov-13 00:59N 70°59' E 024°28'611.8
2017-Nov-13 00:30N 70°54' E 024°20'611.2
2017-Nov-13 00:00N 70°49' E 024°13'611.8
2017-Nov-12 23:30N 70°43' E 024°11'611.8
2017-Nov-12 23:00N 70°37' E 024°09'611.7
2017-Nov-12 22:30N 70°32' E 024°01'611.8
2017-Nov-12 22:00N 70°28' E 023°46'612.3
2017-Nov-12 21:30N 70°24' E 023°34'612.3
2017-Nov-12 21:00N 70°19' E 023°23'612.1
2017-Nov-12 20:30N 70°14' E 023°12'611.5
2017-Nov-12 20:00N 70°09' E 023°07'612.0
2017-Nov-12 19:30N 70°03' E 023°08'510.9
2017-Nov-12 19:00N 69°57' E 023°07'0 0.9
2017-Nov-12 18:31N 69°57' E 023°06'4 7.4
2017-Nov-12 18:00N 70°01' E 023°08'510.7
2017-Nov-12 17:30N 70°06' E 023°07'610.9
2017-Nov-12 16:59N 70°11' E 023°08'510.5
2017-Nov-12 16:30N 70°16' E 023°16'510.7
2017-Nov-12 16:00N 70°20' E 023°26'510.9
2017-Nov-12 15:30N 70°24' E 023°36'510.9
2017-Nov-12 15:00N 70°29' E 023°46'611.3
2017-Nov-12 14:30N 70°31' E 024°01'510.9
2017-Nov-12 14:01N 70°36' E 024°09'510.7
2017-Nov-12 13:30N 70°41' E 024°10'510.6
2017-Nov-12 12:59N 70°47' E 024°12'510.5
2017-Nov-12 12:30N 70°52' E 024°16'510.8
2017-Nov-12 12:00N 70°56' E 024°25'510.5
2017-Nov-12 11:31N 71°01' E 024°32'510.5
2017-Nov-12 11:01N 71°00' E 024°48'610.7
2017-Nov-12 10:29N 70°59' E 025°05'510.7
2017-Nov-12 10:00N 70°59' E 025°21'5 9.7
2017-Nov-12 09:30N 70°56' E 025°32'5 8.8
2017-Nov-12 09:00N 70°58' E 025°45'1 1.8
2017-Nov-12 08:30N 70°59' E 025°45'0 0.0
2017-Nov-12 08:00N 70°59' E 025°45'0 0.0
2017-Nov-12 07:30N 70°59' E 025°45'2 4.5
2017-Nov-12 07:00N 70°57' E 025°45'611.3
2017-Nov-12 06:30N 70°58' E 025°27'612.0
2017-Nov-12 06:00N 70°59' E 025°10'611.8
2017-Nov-12 05:30N 71°00' E 024°52'612.1
2017-Nov-12 05:00N 71°02' E 024°34'611.8
2017-Nov-12 04:30N 70°56' E 024°25'611.6
2017-Nov-12 04:00N 70°51' E 024°16'611.8
2017-Nov-12 03:30N 70°46' E 024°12'612.1
2017-Nov-12 03:00N 70°40' E 024°10'611.8
2017-Nov-12 02:30N 70°34' E 024°05'611.0
2017-Nov-12 02:00N 70°30' E 023°53'611.4
2017-Nov-12 01:30N 70°26' E 023°41'611.6
2017-Nov-12 01:00N 70°22' E 023°30'611.9
2017-Nov-12 00:30N 70°17' E 023°19'612.0
2017-Nov-12 00:00N 70°12' E 023°09'612.2
2017-Nov-11 23:30N 70°06' E 023°07'612.3
2017-Nov-11 23:00N 69°60' E 023°08'3 6.5
2017-Nov-11 22:30N 69°57' E 023°06'1 2.8
2017-Nov-11 22:00N 69°58' E 023°09'510.5
2017-Nov-11 21:30N 70°03' E 023°08'510.0
2017-Nov-11 21:00N 70°08' E 023°07'510.4
2017-Nov-11 20:30N 70°13' E 023°10'510.5
2017-Nov-11 20:00N 70°17' E 023°19'510.3
2017-Nov-11 19:30N 70°21' E 023°28'5 9.9
2017-Nov-11 19:00N 70°25' E 023°37'510.0
2017-Nov-11 18:30N 70°29' E 023°47'5 9.5
2017-Nov-11 18:00N 70°31' E 023°60'510.5
2017-Nov-11 17:30N 70°36' E 024°08'510.5
2017-Nov-11 17:00N 70°41' E 024°11'510.5
2017-Nov-11 16:30N 70°46' E 024°12'510.2
2017-Nov-11 16:00N 70°51' E 024°14'610.7
2017-Nov-11 15:29N 70°56' E 024°23'510.8
2017-Nov-11 14:59N 71°01' E 024°30'5 9.7
2017-Nov-11 14:30N 71°01' E 024°45'611.1
2017-Nov-11 14:00N 70°60' E 025°02'611.0
2017-Nov-11 13:29N 70°59' E 025°19'611.4
2017-Nov-11 13:00N 70°56' E 025°33'4 8.8
2017-Nov-11 12:29N 70°58' E 025°45'1 1.5
2017-Nov-11 12:00N 70°59' E 025°45'0 0.0
2017-Nov-11 11:30N 70°59' E 025°45'0 0.0
2017-Nov-11 11:00N 70°59' E 025°45'0 0.0
2017-Nov-11 10:30N 70°59' E 025°45'0 0.0
2017-Nov-11 10:00N 70°59' E 025°45'0 0.3
2017-Nov-11 09:30N 70°59' E 025°45'4 7.6
2017-Nov-11 09:00N 70°56' E 025°38'611.8
2017-Nov-11 08:30N 70°59' E 025°22'611.8
2017-Nov-11 08:00N 70°59' E 025°04'612.4
2017-Nov-11 07:30N 71°01' E 024°45'510.3
2017-Nov-11 07:00N 70°59' E 024°29'612.3
2017-Nov-11 06:30N 70°54' E 024°21'612.3
2017-Nov-11 06:00N 70°49' E 024°13'612.3
2017-Nov-11 05:30N 70°43' E 024°11'612.1
2017-Nov-11 05:00N 70°36' E 024°09'612.2
2017-Nov-11 04:30N 70°31' E 023°60'612.5
2017-Nov-11 04:00N 70°28' E 023°44'612.5
2017-Nov-11 03:30N 70°23' E 023°32'612.2
2017-Nov-11 03:00N 70°18' E 023°21'612.3
2017-Nov-11 02:30N 70°13' E 023°10'612.0
2017-Nov-11 02:00N 70°07' E 023°07'612.2
2017-Nov-11 01:30N 70°01' E 023°09'4 9.1
2017-Nov-11 01:00N 69°57' E 023°06'0 0.1
2017-Nov-11 00:30N 69°57' E 023°06'4 9.1
2017-Nov-11 00:01N 70°01' E 023°09'510.1
2017-Nov-10 23:30N 70°06' E 023°07'510.3
2017-Nov-10 23:00N 70°11' E 023°09'510.3
2017-Nov-10 22:30N 70°16' E 023°16'510.6
2017-Nov-10 22:00N 70°20' E 023°25'510.6
2017-Nov-10 21:30N 70°24' E 023°36'510.4
2017-Nov-10 21:00N 70°28' E 023°46'510.4
2017-Nov-10 20:30N 70°31' E 023°59'510.6
2017-Nov-10 20:00N 70°35' E 024°08'510.4
2017-Nov-10 19:30N 70°41' E 024°10'510.3
2017-Nov-10 19:00N 70°46' E 024°11'510.1
2017-Nov-10 18:30N 70°51' E 024°14'5 9.4
2017-Nov-10 18:00N 70°54' E 024°22'510.0
2017-Nov-10 17:30N 70°59' E 024°28'4 8.0
2017-Nov-10 17:00N 71°01' E 024°38'5 9.6
2017-Nov-10 16:30N 70°60' E 024°52'510.1
2017-Nov-10 16:00N 70°59' E 025°07'510.0
2017-Nov-10 15:30N 70°59' E 025°23'4 8.9
2017-Nov-10 15:00N 70°56' E 025°33'4 7.6
2017-Nov-10 14:30N 70°52' E 025°27'0 0.0
2017-Nov-10 14:00N 70°52' E 025°27'0 0.0
2017-Nov-10 13:30N 70°52' E 025°27'0 0.1
2017-Nov-10 13:00N 70°52' E 025°27'4 8.7
2017-Nov-10 12:30N 70°57' E 025°30'510.7
2017-Nov-10 12:00N 70°59' E 025°15'611.7
2017-Nov-10 11:30N 70°59' E 024°57'611.6
2017-Nov-10 11:00N 71°01' E 024°40'5 9.8
2017-Nov-10 10:30N 70°59' E 024°27'611.9
2017-Nov-10 10:00N 70°53' E 024°19'611.6
2017-Nov-10 09:29N 70°48' E 024°12'612.1
2017-Nov-10 09:00N 70°42' E 024°10'611.9
2017-Nov-10 08:30N 70°36' E 024°08'611.7
2017-Nov-10 08:00N 70°31' E 023°58'612.0
2017-Nov-10 07:30N 70°28' E 023°44'612.4
2017-Nov-10 07:00N 70°23' E 023°32'612.2
2017-Nov-10 06:30N 70°18' E 023°21'612.0
2017-Nov-10 06:00N 70°13' E 023°10'612.0
2017-Nov-10 05:30N 70°07' E 023°07'612.1
2017-Nov-10 05:00N 70°01' E 023°08'5 9.0
2017-Nov-10 04:30N 69°57' E 023°06'0 0.0
2017-Nov-10 03:59N 69°57' E 023°06'4 8.9
2017-Nov-10 03:29N 70°01' E 023°08'510.4
2017-Nov-10 03:00N 70°06' E 023°07'510.5
2017-Nov-10 02:30N 70°11' E 023°09'5 9.9
2017-Nov-10 02:00N 70°16' E 023°16'510.1
2017-Nov-10 01:30N 70°20' E 023°25'510.3
2017-Nov-10 01:01N 70°24' E 023°34'510.5
2017-Nov-10 00:31N 70°28' E 023°44'510.5
2017-Nov-10 00:00N 70°31' E 023°58'510.5
2017-Nov-09 23:30N 70°35' E 024°07'510.1
2017-Nov-09 23:00N 70°40' E 024°10'510.1
2017-Nov-09 22:30N 70°45' E 024°11'510.0
2017-Nov-09 22:00N 70°50' E 024°13'510.7
2017-Nov-09 21:30N 70°54' E 024°22'510.2
2017-Nov-09 21:00N 70°59' E 024°29'4 8.7
2017-Nov-09 20:30N 71°01' E 024°41'510.7
2017-Nov-09 20:00N 70°60' E 024°56'510.3
2017-Nov-09 19:30N 70°59' E 025°12'5 9.8
2017-Nov-09 19:00N 70°58' E 025°27'4 8.5
2017-Nov-09 18:31N 70°54' E 025°32'2 4.8
2017-Nov-09 18:00N 70°52' E 025°27'0 0.0
2017-Nov-09 17:30N 70°52' E 025°27'1 1.7
2017-Nov-09 17:00N 70°53' E 025°29'510.9
2017-Nov-09 16:30N 70°58' E 025°26'611.8
2017-Nov-09 16:00N 70°59' E 025°08'611.6
2017-Nov-09 15:31N 71°00' E 024°51'611.8
2017-Nov-09 15:00N 71°01' E 024°32'612.2
2017-Nov-09 14:30N 70°56' E 024°24'611.8
2017-Nov-09 14:00N 70°51' E 024°14'612.0
2017-Nov-09 13:30N 70°45' E 024°12'611.9
2017-Nov-09 13:01N 70°39' E 024°10'611.6
2017-Nov-09 12:30N 70°34' E 024°05'510.7
2017-Nov-09 12:00N 70°30' E 023°53'611.7
2017-Nov-09 11:30N 70°26' E 023°39'611.3
2017-Nov-09 11:00N 70°22' E 023°29'611.7
2017-Nov-09 10:30N 70°17' E 023°19'611.8
2017-Nov-09 10:00N 70°12' E 023°09'612.1
2017-Nov-09 09:30N 70°06' E 023°07'612.1
2017-Nov-09 09:00N 70°00' E 023°09'3 6.8
2017-Nov-09 08:30N 69°57' E 023°06'1 2.2
2017-Nov-09 08:01N 69°57' E 023°08'5 9.9
2017-Nov-09 07:30N 70°03' E 023°08'5 9.6
2017-Nov-09 07:00N 70°07' E 023°07'510.3
2017-Nov-09 06:30N 70°12' E 023°09'510.5
2017-Nov-09 06:00N 70°17' E 023°17'510.3
2017-Nov-09 05:30N 70°21' E 023°27'5 9.8
2017-Nov-09 05:00N 70°25' E 023°37'5 9.7
2017-Nov-09 04:30N 70°28' E 023°45'5 9.0
2017-Nov-09 03:54N 70°31' E 023°60'410.6
2017-Nov-09 03:30N 70°35' E 024°07'510.2
2017-Nov-09 03:00N 70°39' E 024°11'510.1
2017-Nov-09 02:30N 70°45' E 024°12'510.1
2017-Nov-09 02:00N 70°50' E 024°13'510.1
2017-Nov-09 01:30N 70°54' E 024°21'510.4
2017-Nov-09 01:00N 70°58' E 024°28'4 8.8
2017-Nov-09 00:30N 71°01' E 024°38'610.9
2017-Nov-09 00:00N 70°60' E 024°55'510.9
2017-Nov-08 23:30N 70°59' E 025°12'510.2
2017-Nov-08 23:00N 70°58' E 025°27'5 9.9
2017-Nov-08 22:30N 70°53' E 025°30'1 2.6
2017-Nov-08 22:00N 70°52' E 025°27'0 0.0
2017-Nov-08 21:30N 70°52' E 025°27'3 5.4
2017-Nov-08 21:00N 70°54' E 025°33'4 8.9
2017-Nov-08 20:30N 70°58' E 025°26'510.8
2017-Nov-08 20:00N 70°59' E 025°10'611.5
2017-Nov-08 19:30N 70°60' E 024°52'611.7
2017-Nov-08 18:59N 71°01' E 024°34'611.7
2017-Nov-08 18:30N 70°58' E 024°21'612.4
2017-Nov-08 18:00N 70°54' E 024°07'612.2
2017-Nov-08 17:30N 70°50' E 023°53'612.5
2017-Nov-08 17:01N 70°45' E 023°40'713.0
2017-Nov-08 16:30N 70°40' E 023°26'612.9
2017-Nov-08 16:00N 70°36' E 023°13'712.9
2017-Nov-08 15:30N 70°31' E 022°58'612.7
2017-Nov-08 15:00N 70°29' E 022°41'612.1
2017-Nov-08 14:30N 70°28' E 022°22'611.3
2017-Nov-08 14:00N 70°26' E 022°06'611.8
2017-Nov-08 13:31N 70°25' E 021°50'1111.7
2017-Nov-08 12:36N 70°18' E 021°25'112.1
2017-Nov-08 12:30N 70°17' E 021°22'811.5
2017-Nov-08 11:49N 70°11' E 021°08'16 5.9
2017-Nov-08 09:05N 70°01' E 020°30'110.0
2017-Nov-08 09:00N 70°01' E 020°28'510.0
2017-Nov-08 08:30N 70°02' E 020°13'510.1
2017-Nov-08 08:00N 70°02' E 019°58'5 9.9
2017-Nov-08 07:30N 70°03' E 019°44'5 9.7
2017-Nov-08 07:00N 70°04' E 019°31'3 7.0
2017-Nov-08 06:30N 70°04' E 019°20'0 0.0
2017-Nov-08 06:00N 70°04' E 019°20'0 0.0
2017-Nov-08 05:30N 70°04' E 019°20'0 0.0
2017-Nov-08 05:00N 70°04' E 019°20'0 0.0
2017-Nov-08 04:30N 70°04' E 019°20'0 0.3
2017-Nov-08 04:00N 70°04' E 019°20'4 8.7
2017-Nov-08 03:30N 70°04' E 019°33'611.3
2017-Nov-08 03:00N 70°02' E 019°49'610.9
2017-Nov-08 02:30N 70°02' E 020°05'611.2
2017-Nov-08 02:00N 70°02' E 020°21'511.2
2017-Nov-08 01:30N 70°02' E 020°37'611.2
2017-Nov-08 01:00N 70°03' E 020°53'3 5.0
2017-Nov-08 00:30N 70°02' E 020°59'0 0.6
2017-Nov-08 00:00N 70°02' E 021°00'11 8.6
2017-Nov-07 22:40N 70°02' E 020°27'210.1
2017-Nov-07 22:30N 70°02' E 020°22'510.4
2017-Nov-07 22:00N 70°02' E 020°07'510.3
2017-Nov-07 21:30N 70°03' E 019°52'5 9.9
2017-Nov-07 21:00N 70°04' E 019°38'510.0
2017-Nov-07 20:30N 70°05' E 019°24'1 2.8
2017-Nov-07 20:00N 70°04' E 019°20'0 0.0
2017-Nov-07 19:30N 70°04' E 019°20'1 2.2
2017-Nov-07 19:00N 70°05' E 019°22'612.2
2017-Nov-07 18:30N 70°03' E 019°39'612.3
2017-Nov-07 18:00N 70°02' E 019°57'611.7
2017-Nov-07 17:30N 70°02' E 020°14'611.6
2017-Nov-07 17:00N 70°01' E 020°31'611.4
2017-Nov-07 16:30N 70°03' E 020°47'5 9.7
2017-Nov-07 16:00N 70°03' E 021°01'1 2.1
2017-Nov-07 15:30N 70°02' E 020°59'0 0.0
2017-Nov-07 15:00N 70°02' E 020°59'2 3.7
2017-Nov-07 14:30N 70°04' E 020°56'510.9
2017-Nov-07 14:00N 70°02' E 020°41'510.5
2017-Nov-07 13:30N 70°01' E 020°25'510.3
2017-Nov-07 13:00N 70°02' E 020°10'510.3
2017-Nov-07 12:30N 70°02' E 019°55'510.5
2017-Nov-07 12:00N 70°03' E 019°40'510.4
2017-Nov-07 11:30N 70°05' E 019°25'2 3.6
2017-Nov-07 11:00N 70°04' E 019°20'0 0.0
2017-Nov-07 10:30N 70°04' E 019°20'1 2.0
2017-Nov-07 10:00N 70°05' E 019°22'611.4
2017-Nov-07 09:30N 70°04' E 019°37'611.9
2017-Nov-07 09:00N 70°02' E 019°54'611.5
2017-Nov-07 08:30N 70°02' E 020°11'611.4
2017-Nov-07 08:00N 70°01' E 020°28'612.1
2017-Nov-07 07:30N 70°03' E 020°45'611.0
2017-Nov-07 07:00N 70°03' E 021°01'1 2.7
2017-Nov-07 06:30N 70°02' E 020°59'1 1.4
2017-Nov-07 06:00N 70°02' E 021°01'2 3.4
2017-Nov-07 05:30N 70°04' E 021°04'0 0.8
2017-Nov-07 05:00N 70°04' E 021°04'1 2.0
2017-Nov-07 04:30N 70°03' E 021°04'1 1.9
2017-Nov-07 04:01N 70°02' E 021°03'0 0.7
2017-Nov-07 03:30N 70°02' E 021°02'3 5.6
2017-Nov-07 03:00N 70°04' E 020°55'510.0
2017-Nov-07 02:30N 70°02' E 020°41'5 9.7
2017-Nov-07 02:00N 70°02' E 020°27'5 9.5
2017-Nov-07 01:30N 70°02' E 020°13'510.1
2017-Nov-07 01:00N 70°02' E 019°59'510.7
2017-Nov-07 00:30N 70°03' E 019°43'510.5
2017-Nov-07 00:00N 70°05' E 019°29'3 5.6
2017-Nov-06 23:30N 70°04' E 019°20'0 0.0
2017-Nov-06 23:00N 70°04' E 019°20'0 0.0
2017-Nov-06 22:30N 70°04' E 019°20'4 7.2
2017-Nov-06 22:00N 70°04' E 019°31'510.7
2017-Nov-06 21:30N 69°60' E 019°41'611.0
2017-Nov-06 21:00N 69°55' E 019°31'611.8
2017-Nov-06 20:30N 69°50' E 019°23'  

Dump ship's entire track history